createdAt,value
2017-10-28T00:08:03.000Z,65.579
2017-10-28T00:18:03.000Z,65.619
2017-10-28T00:28:03.000Z,65.733
2017-10-28T00:38:03.000Z,65.688
2017-10-28T00:48:03.000Z,65.74
2017-10-28T00:58:06.000Z,65.757
2017-10-28T01:08:03.000Z,65.914
2017-10-28T01:18:06.000Z,65.871
2017-10-28T01:28:03.000Z,65.91
2017-10-28T01:38:03.000Z,65.97
2017-10-28T01:48:03.000Z,65.98
2017-10-28T01:58:04.000Z,66.041
2017-10-28T02:08:03.000Z,65.946
2017-10-28T02:18:03.000Z,65.973
2017-10-28T02:28:03.000Z,66.1
2017-10-28T02:38:03.000Z,66.139
2017-10-28T02:48:03.000Z,66.085
2017-10-28T02:58:03.000Z,66.107
2017-10-28T03:08:03.000Z,66.188
2017-10-28T03:18:03.000Z,66.124
2017-10-28T03:28:03.000Z,66.143
2017-10-28T03:38:03.000Z,66.213
2017-10-28T03:48:03.000Z,66.181
2017-10-28T03:58:03.000Z,66.252
2017-10-28T04:08:03.000Z,66.315
2017-10-28T04:18:03.000Z,66.27
2017-10-28T04:28:03.000Z,66.343
2017-10-28T04:38:03.000Z,66.372
2017-10-28T04:48:03.000Z,66.403
2017-10-28T04:58:03.000Z,66.411
2017-10-28T05:08:03.000Z,66.378
2017-10-28T05:18:03.000Z,66.418
2017-10-28T05:28:03.000Z,66.408
2017-10-28T05:38:03.000Z,66.407
2017-10-28T05:48:03.000Z,66.405
2017-10-28T05:58:03.000Z,66.351
2017-10-28T06:08:03.000Z,66.381
2017-10-28T06:18:03.000Z,66.391
2017-10-28T06:28:07.000Z,66.38
2017-10-28T06:38:03.000Z,66.39
2017-10-28T06:48:03.000Z,66.38
2017-10-28T06:58:03.000Z,66.369
2017-10-28T07:08:03.000Z,66.388
2017-10-28T07:18:03.000Z,66.369
2017-10-28T07:28:03.000Z,66.303
2017-10-28T07:38:03.000Z,66.23
2017-10-28T07:48:04.000Z,66.313
2017-10-28T07:58:04.000Z,66.185
2017-10-28T08:08:04.000Z,65.936
2017-10-28T08:18:04.000Z,65.659
2017-10-28T08:28:04.000Z,64.42
2017-10-28T08:38:04.000Z,65.514
2017-10-28T08:48:04.000Z,65.279
2017-10-28T08:58:04.000Z,65.13
2017-10-28T09:08:04.000Z,64.946
2017-10-28T09:18:04.000Z,64.905
2017-10-28T09:28:04.000Z,65.047
2017-10-28T09:38:04.000Z,65.029
2017-10-28T09:48:04.000Z,65.04
2017-10-28T09:58:04.000Z,65.191
2017-10-28T10:08:04.000Z,65.145
2017-10-28T10:18:04.000Z,64.949
2017-10-28T10:38:04.000Z,65.036
2017-10-28T10:48:04.000Z,64.936
2017-10-28T10:58:04.000Z,63.738
2017-10-28T11:08:04.000Z,61.856
2017-10-28T11:18:04.000Z,61.927
2017-10-28T11:28:04.000Z,62.403
2017-10-28T11:38:04.000Z,62.835
2017-10-28T11:48:08.000Z,63
2017-10-28T11:58:06.000Z,63.281
2017-10-28T12:08:04.000Z,63.302
2017-10-28T12:18:04.000Z,63.256
2017-10-28T12:28:04.000Z,64.17
2017-10-28T12:38:04.000Z,65.107
2017-10-28T12:48:04.000Z,65.79
2017-10-28T12:58:04.000Z,66.333
2017-10-28T13:08:04.000Z,67.083
2017-10-28T13:18:04.000Z,67.734
2017-10-28T13:28:05.000Z,68.335
2017-10-28T13:38:04.000Z,68.412
2017-10-28T13:48:04.000Z,68.382
2017-10-28T13:58:04.000Z,68.343
2017-10-28T14:08:04.000Z,68.385
2017-10-28T14:18:04.000Z,69.637
2017-10-28T14:28:04.000Z,69.897
2017-10-28T14:38:04.000Z,70.057
2017-10-28T14:48:04.000Z,69.978
2017-10-28T14:58:04.000Z,70.255
2017-10-28T15:08:04.000Z,70.215
2017-10-28T15:18:04.000Z,70.403
2017-10-28T15:28:04.000Z,70.303
2017-10-28T15:38:04.000Z,70.3
2017-10-28T15:48:04.000Z,70.494
2017-10-28T15:58:04.000Z,70.913
2017-10-28T16:08:04.000Z,71.058
2017-10-28T16:18:05.000Z,71.004
2017-10-28T16:28:05.000Z,71.569
2017-10-28T16:38:05.000Z,71.542
2017-10-28T16:48:05.000Z,71.295
2017-10-28T16:58:05.000Z,70.853
2017-10-28T17:08:05.000Z,71.218
2017-10-28T17:18:05.000Z,71.231
2017-10-28T17:28:05.000Z,71.577
2017-10-28T17:38:05.000Z,71.828
2017-10-28T17:48:05.000Z,72.035
2017-10-28T17:58:05.000Z,72.134
2017-10-28T18:08:05.000Z,72.371
2017-10-28T18:18:05.000Z,72.373
2017-10-28T18:28:06.000Z,72.406
2017-10-28T18:38:05.000Z,72.374
2017-10-28T18:48:05.000Z,72.35
2017-10-28T18:58:05.000Z,72.233
2017-10-28T19:08:05.000Z,72.397
2017-10-28T19:18:05.000Z,72.278
2017-10-28T19:28:05.000Z,72.442
2017-10-28T19:38:05.000Z,72.333
2017-10-28T19:48:05.000Z,72.281
2017-10-28T19:58:05.000Z,72.196
2017-10-28T20:08:05.000Z,72.175
2017-10-28T20:18:05.000Z,72.251
2017-10-28T20:28:05.000Z,72.146
2017-10-28T20:38:05.000Z,72.104
2017-10-28T20:48:05.000Z,72.159
2017-10-28T20:58:05.000Z,72.194
2017-10-28T21:08:05.000Z,72.075
2017-10-28T21:18:05.000Z,72.111
2017-10-28T21:28:05.000Z,72.101
2017-10-28T21:38:05.000Z,72.103
2017-10-28T21:48:05.000Z,71.996
2017-10-28T21:58:05.000Z,71.963
2017-10-28T22:08:05.000Z,71.877
2017-10-28T22:18:05.000Z,71.977
2017-10-28T22:28:05.000Z,71.965
2017-10-28T22:48:07.000Z,71.826
2017-10-28T22:58:05.000Z,71.826
2017-10-28T23:08:05.000Z,71.739
2017-10-28T23:18:05.000Z,71.685
2017-10-28T23:28:09.000Z,71.674
2017-10-28T23:38:05.000Z,71.685
2017-10-28T23:48:09.000Z,71.62
2017-10-28T23:58:05.000Z,71.436
